Time;durP1;ratioP1;P1;durP2;ratioP2;P2;SDS_P1;SDS_P2;PMS_P1;PMS_P2;Temp;Humidity;BMP_temperature;BMP_pressure;BME280_temperature;BME280_humidity;BME280_pressure;Samples;Min_cycle;Max_cycle;Signal;HPM_P1;HPM_P2
2022/09/06 00:00:46;;;;;;;4.00;3.90;;;18.90;99.90;;;;;;5030153;28;20253;-48
2022/09/06 00:03:16;;;;;;;4.63;4.43;;;18.80;99.90;;;;;;5031786;28;20206;-49
2022/09/06 00:05:43;;;;;;;4.13;3.83;;;18.90;99.90;;;;;;5023803;28;20207;-49
2022/09/06 00:08:13;;;;;;;3.67;3.50;;;18.90;99.90;;;;;;5032114;28;20210;-49
2022/09/06 00:10:42;;;;;;;4.33;4.00;;;18.80;99.90;;;;;;5033771;28;20206;-49
2022/09/06 00:13:11;;;;;;;3.90;3.80;;;18.80;99.90;;;;;;5031548;28;20209;-50
2022/09/06 00:15:39;;;;;;;4.07;3.87;;;18.80;99.90;;;;;;5031319;28;20221;-49
2022/09/06 00:18:08;;;;;;;3.40;3.27;;;18.80;99.90;;;;;;5024415;28;20268;-49
2022/09/06 00:20:35;;;;;;;4.13;3.90;;;18.80;99.90;;;;;;5023834;28;20198;-48
2022/09/06 00:23:04;;;;;;;4.33;4.13;;;18.80;99.90;;;;;;5012852;28;20199;-48
2022/09/06 00:25:32;;;;;;;3.40;3.30;;;18.80;99.90;;;;;;5014015;28;20628;-50
2022/09/06 00:28:01;;;;;;;4.57;4.27;;;18.90;99.90;;;;;;5032216;28;20215;-49
2022/09/06 00:30:29;;;;;;;5.27;4.97;;;19.00;99.90;;;;;;5031752;28;20213;-49
2022/09/06 00:32:56;;;;;;;5.70;4.47;;;19.10;99.90;;;;;;5023884;28;20268;-49
2022/09/06 00:35:26;;;;;;;6.37;4.37;;;19.30;99.90;;;;;;5030942;28;20206;-48
2022/09/06 00:37:57;;;;;;;4.27;4.07;;;19.40;99.90;;;;;;5032132;28;20222;-49
2022/09/06 00:40:24;;;;;;;4.10;3.90;;;19.30;99.90;;;;;;5031031;28;20293;-49
2022/09/06 00:42:51;;;;;;;3.90;3.80;;;19.40;99.90;;;;;;5032327;28;20222;-48
2022/09/06 00:45:19;;;;;;;4.67;4.47;;;19.30;99.90;;;;;;5032621;28;20202;-48
2022/09/06 00:47:46;;;;;;;4.37;4.17;;;19.20;99.90;;;;;;5032582;28;20273;-49
2022/09/06 00:50:15;;;;;;;3.87;3.77;;;19.30;99.90;;;;;;5031575;28;20203;-49
2022/09/06 00:52:47;;;;;;;4.63;4.37;;;19.30;99.90;;;;;;5026995;28;20195;-48
2022/09/06 00:55:14;;;;;;;4.60;4.20;;;19.30;99.90;;;;;;5034933;28;20256;-48
2022/09/06 00:57:41;;;;;;;3.80;3.63;;;19.30;99.90;;;;;;5031976;28;20276;-49
2022/09/06 01:00:09;;;;;;;5.33;4.00;;;19.20;99.90;;;;;;5031339;28;20203;-49
2022/09/06 01:02:37;;;;;;;4.40;4.20;;;19.20;99.90;;;;;;5031469;28;20230;-48
2022/09/06 01:05:05;;;;;;;4.53;4.13;;;19.20;99.90;;;;;;5024803;28;20252;-50
2022/09/06 01:07:44;;;;;;;4.97;4.67;;;19.20;99.90;;;;;;5023457;28;20284;-49
2022/09/06 01:10:28;;;;;;;4.13;3.83;;;19.20;99.90;;;;;;5025317;28;20199;-50
2022/09/06 01:13:03;;;;;;;3.87;3.37;;;19.20;99.90;;;;;;5032001;28;20256;-48
2022/09/06 01:15:40;;;;;;;4.13;4.03;;;19.20;99.90;;;;;;5032131;28;20683;-48
2022/09/06 01:18:19;;;;;;;3.73;3.63;;;19.20;99.90;;;;;;5034147;28;20259;-48
2022/09/06 01:20:58;;;;;;;3.60;3.30;;;19.10;99.90;;;;;;5031426;28;20745;-50
2022/09/06 01:23:55;;;;;;;4.63;3.70;;;19.20;99.90;;;;;;5026964;28;20252;-49
2022/09/06 01:26:50;;;;;;;3.97;3.77;;;19.20;99.90;;;;;;5025701;28;20292;-48
2022/09/06 01:29:26;;;;;;;3.60;3.40;;;19.20;99.90;;;;;;5016265;28;20206;-49
2022/09/06 01:32:03;;;;;;;3.40;3.20;;;19.30;99.90;;;;;;5031549;28;20202;-48
2022/09/06 01:34:35;;;;;;;3.73;3.43;;;19.50;99.90;;;;;;5031369;28;20213;-49
2022/09/06 01:37:06;;;;;;;6.07;4.10;;;19.60;99.90;;;;;;5031479;28;20222;-48
2022/09/06 01:39:34;;;;;;;5.70;3.53;;;19.60;99.90;;;;;;5022982;28;20254;-48
2022/09/06 01:42:06;;;;;;;3.27;3.17;;;19.60;99.90;;;;;;5020961;28;20888;-49
2022/09/06 01:44:36;;;;;;;3.83;3.73;;;19.50;99.90;;;;;;5032821;28;20256;-49
2022/09/06 01:47:15;;;;;;;3.60;3.30;;;19.50;99.90;;;;;;5022957;28;20218;-48
2022/09/06 01:49:52;;;;;;;5.27;4.87;;;19.50;99.90;;;;;;5031495;28;20210;-49
2022/09/06 01:52:25;;;;;;;4.50;4.40;;;19.40;99.90;;;;;;5031324;28;20202;-49
2022/09/06 01:55:06;;;;;;;3.30;2.97;;;19.40;99.90;;;;;;5029183;28;20198;-48
2022/09/06 01:57:57;;;;;;;3.67;3.57;;;19.30;99.90;;;;;;5028470;28;20305;-48
2022/09/06 02:00:26;;;;;;;3.03;2.87;;;19.40;99.90;;;;;;5032832;28;20206;-49
2022/09/06 02:03:01;;;;;;;4.00;3.90;;;19.40;99.90;;;;;;5029448;28;20226;-49
2022/09/06 02:05:34;;;;;;;3.27;3.07;;;19.30;99.90;;;;;;5034566;28;20206;-48
2022/09/06 02:08:08;;;;;;;4.10;3.70;;;19.30;99.90;;;;;;5032302;28;20218;-49
2022/09/06 02:10:40;;;;;;;4.20;3.90;;;19.20;99.90;;;;;;5031364;28;20248;-48
2022/09/06 02:13:13;;;;;;;4.70;4.40;;;19.40;99.90;;;;;;5019412;28;20202;-48
2022/09/06 02:15:47;;;;;;;4.17;3.90;;;19.60;99.90;;;;;;5025808;28;20217;-49
2022/09/06 02:18:18;;;;;;;4.30;4.00;;;19.70;99.90;;;;;;5029835;28;20245;-50
2022/09/06 02:20:49;;;;;;;5.67;4.93;;;19.80;99.90;;;;;;5037087;28;20272;-49
2022/09/06 02:23:18;;;;;;;5.80;4.90;;;19.60;99.90;;;;;;5028745;28;20272;-49
2022/09/06 02:25:52;;;;;;;7.00;5.20;;;19.40;99.90;;;;;;5026993;28;20556;-49
2022/09/06 02:28:19;;;;;;;4.63;4.27;;;19.20;99.90;;;;;;5036998;28;20206;-48
2022/09/06 02:30:50;;;;;;;5.00;4.60;;;19.10;99.90;;;;;;5043614;28;20214;-49
2022/09/06 02:33:22;;;;;;;4.17;3.93;;;18.90;99.90;;;;;;5031873;28;20225;-49
2022/09/06 02:35:52;;;;;;;5.77;5.37;;;18.80;99.90;;;;;;5034828;28;20199;-49
2022/09/06 02:38:23;;;;;;;5.00;4.53;;;18.70;99.90;;;;;;5034883;28;20206;-49
2022/09/06 02:40:54;;;;;;;4.90;4.57;;;18.70;99.90;;;;;;5026831;28;20207;-48
2022/09/06 02:43:21;;;;;;;4.60;4.30;;;18.70;99.90;;;;;;5028140;28;20276;-49
2022/09/06 02:45:49;;;;;;;8.20;4.20;;;18.70;99.90;;;;;;5031897;28;20198;-48
2022/09/06 02:48:19;;;;;;;4.73;4.53;;;18.70;99.90;;;;;;5034544;28;20268;-49
2022/09/06 02:50:46;;;;;;;5.20;4.87;;;18.60;99.90;;;;;;5024618;28;20510;-49
2022/09/06 02:53:15;;;;;;;4.30;4.20;;;18.50;99.90;;;;;;5027772;28;20199;-50
2022/09/06 02:55:42;;;;;;;5.67;5.37;;;18.50;99.90;;;;;;5030103;28;20256;-48
2022/09/06 02:58:11;;;;;;;5.00;4.80;;;18.30;99.90;;;;;;5030820;28;20268;-49
2022/09/06 03:00:38;;;;;;;4.70;4.50;;;18.20;99.90;;;;;;5033600;28;20202;-48
2022/09/06 03:03:07;;;;;;;6.00;5.47;;;18.20;99.90;;;;;;5031554;28;20230;-49
2022/09/06 03:05:34;;;;;;;5.33;5.03;;;18.10;99.90;;;;;;5029291;28;20203;-48
2022/09/06 03:08:01;;;;;;;5.50;5.13;;;18.10;99.90;;;;;;5036532;28;20223;-49
2022/09/06 03:10:28;;;;;;;5.40;5.20;;;18.20;99.90;;;;;;5032866;28;20245;-49
2022/09/06 03:12:58;;;;;;;6.00;5.40;;;18.30;99.90;;;;;;5033464;28;20202;-49
2022/09/06 03:15:25;;;;;;;6.10;5.60;;;18.30;99.90;;;;;;5038699;28;20215;-48
2022/09/06 03:17:58;;;;;;;7.00;6.17;;;18.20;99.90;;;;;;5032487;28;20220;-47
2022/09/06 03:20:26;;;;;;;6.07;5.47;;;18.10;99.90;;;;;;5028787;28;20204;-48
2022/09/06 03:22:53;;;;;;;7.47;6.80;;;18.00;99.90;;;;;;5031295;28;20218;-48
2022/09/06 03:25:20;;;;;;;4.60;4.40;;;17.90;99.90;;;;;;5024630;28;20260;-48
2022/09/06 03:27:48;;;;;;;6.33;4.93;;;17.90;99.90;;;;;;5028139;28;20329;-49
2022/09/06 03:30:15;;;;;;;5.77;5.27;;;17.80;99.90;;;;;;5033638;28;20212;-48
2022/09/06 03:32:41;;;;;;;4.47;4.07;;;17.90;99.90;;;;;;5031795;28;20194;-49
2022/09/06 03:35:10;;;;;;;5.60;5.10;;;17.90;99.90;;;;;;5030636;28;20627;-48
2022/09/06 03:37:38;;;;;;;6.30;5.70;;;18.00;99.90;;;;;;5025972;28;20284;-48
2022/09/06 03:40:06;;;;;;;7.53;5.53;;;17.70;99.90;;;;;;5032539;28;20738;-48
2022/09/06 03:42:34;;;;;;;5.07;4.77;;;17.60;99.90;;;;;;5026958;28;20221;-47
2022/09/06 03:45:04;;;;;;;5.47;4.97;;;17.60;99.90;;;;;;5031591;28;20201;-48
2022/09/06 03:47:31;;;;;;;6.40;5.93;;;17.60;99.90;;;;;;5029556;28;20227;-48
2022/09/06 03:49:58;;;;;;;5.50;5.23;;;17.50;99.90;;;;;;5024210;28;20238;-49
2022/09/06 03:52:25;;;;;;;4.90;4.70;;;17.50;99.90;;;;;;5033289;28;20611;-48
2022/09/06 03:54:53;;;;;;;5.17;4.97;;;17.60;99.90;;;;;;5033136;28;20202;-48
2022/09/06 03:57:20;;;;;;;4.70;4.53;;;17.60;99.90;;;;;;5033063;28;20227;-49
2022/09/06 03:59:47;;;;;;;5.73;5.03;;;17.60;99.90;;;;;;5031212;28;20206;-49
2022/09/06 04:02:14;;;;;;;5.37;4.97;;;17.60;99.90;;;;;;5032440;28;20276;-48
2022/09/06 04:04:41;;;;;;;5.80;5.50;;;17.60;99.90;;;;;;5024495;28;20681;-48
2022/09/06 04:07:08;;;;;;;6.23;5.83;;;17.50;99.90;;;;;;5032132;28;20227;-48
2022/09/06 04:09:36;;;;;;;7.33;6.87;;;17.50;99.90;;;;;;5031238;28;20248;-49
2022/09/06 04:12:04;;;;;;;6.47;5.97;;;17.50;99.90;;;;;;5024613;28;20199;-49
2022/09/06 04:14:31;;;;;;;6.17;5.87;;;17.40;99.90;;;;;;5032607;28;20210;-48
2022/09/06 04:16:58;;;;;;;6.40;5.80;;;17.50;99.90;;;;;;5032988;28;20218;-48
2022/09/06 04:19:25;;;;;;;6.20;5.70;;;17.50;99.90;;;;;;5026692;28;20325;-48
2022/09/06 04:21:52;;;;;;;6.10;5.80;;;17.50;99.90;;;;;;5035027;28;20225;-48
2022/09/06 04:24:19;;;;;;;6.03;5.50;;;17.50;99.90;;;;;;5030467;28;20252;-48
2022/09/06 04:26:46;;;;;;;6.57;6.17;;;17.50;99.90;;;;;;5032518;28;20297;-49
2022/09/06 04:29:14;;;;;;;13.47;7.20;;;17.50;99.90;;;;;;5031593;28;20218;-48
2022/09/06 04:31:41;;;;;;;7.10;6.10;;;17.60;99.90;;;;;;5031236;28;20229;-48
2022/09/06 04:34:08;;;;;;;5.77;5.37;;;17.60;99.90;;;;;;5032483;28;20236;-49
2022/09/06 04:36:36;;;;;;;5.73;5.30;;;17.60;99.90;;;;;;5031135;28;20222;-48
2022/09/06 04:39:04;;;;;;;5.03;4.73;;;17.60;99.90;;;;;;5030930;28;20233;-48
2022/09/06 04:41:31;;;;;;;6.63;5.67;;;17.70;99.90;;;;;;5030821;28;20221;-49
2022/09/06 04:43:58;;;;;;;5.23;4.87;;;17.70;99.90;;;;;;5030506;28;20305;-49
2022/09/06 04:46:28;;;;;;;8.80;4.83;;;17.70;99.90;;;;;;5029967;28;20734;-48
2022/09/06 04:48:57;;;;;;;5.87;5.47;;;17.60;99.90;;;;;;5029772;28;20213;-48
2022/09/06 04:51:25;;;;;;;10.53;6.80;;;17.60;99.90;;;;;;5031776;28;20249;-47
2022/09/06 04:53:52;;;;;;;5.47;5.17;;;17.70;99.90;;;;;;5031666;28;20194;-49
2022/09/06 04:56:20;;;;;;;7.87;5.70;;;17.70;99.90;;;;;;5029515;28;20226;-49
2022/09/06 04:58:49;;;;;;;6.03;3.57;;;17.70;99.90;;;;;;5032635;28;20199;-48
2022/09/06 05:01:16;;;;;;;7.33;4.90;;;17.80;99.90;;;;;;5030722;28;20198;-49
2022/09/06 05:03:45;;;;;;;6.33;5.80;;;17.70;99.90;;;;;;5029473;28;20295;-48
2022/09/06 05:06:15;;;;;;;6.47;5.87;;;17.70;99.90;;;;;;5030429;28;20276;-48
2022/09/06 05:08:42;;;;;;;5.20;4.87;;;17.60;99.90;;;;;;5029213;28;20206;-48
2022/09/06 05:11:10;;;;;;;4.73;4.53;;;17.70;99.90;;;;;;5030434;28;20665;-49
2022/09/06 05:13:37;;;;;;;5.03;4.83;;;17.60;99.90;;;;;;5027909;28;20213;-49
2022/09/06 05:16:06;;;;;;;5.40;5.20;;;17.60;99.90;;;;;;5030040;28;20276;-48
2022/09/06 05:18:33;;;;;;;5.80;5.40;;;17.60;99.90;;;;;;5026009;28;20206;-49
2022/09/06 05:21:02;;;;;;;7.17;5.67;;;17.50;99.90;;;;;;5032883;28;20195;-48
2022/09/06 05:23:29;;;;;;;6.67;6.00;;;17.60;99.90;;;;;;5028546;28;20222;-49
2022/09/06 05:25:56;;;;;;;6.17;5.67;;;17.60;99.90;;;;;;5046934;28;20198;-49
2022/09/06 05:28:23;;;;;;;5.73;5.43;;;17.50;99.90;;;;;;5024269;28;20211;-48
2022/09/06 05:30:49;;;;;;;6.37;6.07;;;17.50;99.90;;;;;;5030532;28;20260;-48
2022/09/06 05:33:21;;;;;;;7.30;6.60;;;17.50;99.90;;;;;;5028565;28;20616;-50
2022/09/06 05:35:48;;;;;;;11.13;5.97;;;17.40;99.90;;;;;;5030579;28;20198;-49
2022/09/06 05:38:18;;;;;;;7.07;6.47;;;17.30;99.90;;;;;;5028747;28;20389;-49
2022/09/06 05:40:45;;;;;;;7.33;6.67;;;17.40;99.90;;;;;;5027792;28;20252;-49
2022/09/06 05:43:12;;;;;;;7.30;6.53;;;17.30;99.90;;;;;;5031165;28;20276;-48
2022/09/06 05:45:39;;;;;;;7.60;7.10;;;17.30;99.90;;;;;;5022189;28;20203;-49
2022/09/06 05:48:06;;;;;;;7.33;6.80;;;17.40;99.90;;;;;;5028470;28;20299;-48
2022/09/06 05:50:34;;;;;;;7.80;7.00;;;17.30;99.90;;;;;;5029624;28;20746;-48
2022/09/06 05:53:03;;;;;;;6.33;5.83;;;17.40;99.90;;;;;;5027851;28;20231;-48
2022/09/06 05:55:31;;;;;;;6.13;5.63;;;17.30;99.90;;;;;;5029821;28;20207;-49
2022/09/06 05:57:58;;;;;;;7.60;5.83;;;17.30;99.90;;;;;;5028478;28;20214;-48
2022/09/06 06:00:25;;;;;;;7.57;5.33;;;17.30;99.90;;;;;;5016462;28;20304;-49
2022/09/06 06:02:52;;;;;;;6.00;5.60;;;17.30;99.90;;;;;;5025131;28;20215;-49
2022/09/06 06:05:19;;;;;;;5.83;5.43;;;17.30;99.90;;;;;;5025185;28;20209;-48
2022/09/06 06:07:46;;;;;;;6.90;6.27;;;17.30;99.90;;;;;;5025566;28;20224;-49
2022/09/06 06:10:13;;;;;;;6.03;5.57;;;17.30;99.90;;;;;;5028174;28;20722;-48
2022/09/06 06:12:41;;;;;;;7.80;7.17;;;17.30;99.90;;;;;;5026855;28;20226;-48
2022/09/06 06:15:09;;;;;;;5.17;4.77;;;17.30;99.90;;;;;;5029262;28;20285;-48
2022/09/06 06:17:36;;;;;;;6.00;5.60;;;17.30;99.90;;;;;;5027057;28;20707;-48
2022/09/06 06:20:03;;;;;;;5.40;4.97;;;17.30;99.90;;;;;;5026213;28;20250;-48
2022/09/06 06:22:30;;;;;;;4.97;4.30;;;17.30;99.90;;;;;;5029751;28;20202;-49
2022/09/06 06:24:57;;;;;;;5.67;4.50;;;17.30;99.90;;;;;;5029028;28;20258;-49
2022/09/06 06:27:24;;;;;;;4.80;4.50;;;17.40;99.90;;;;;;5029922;28;20214;-48
2022/09/06 06:29:52;;;;;;;4.67;4.37;;;17.40;99.90;;;;;;5024743;28;20206;-48
2022/09/06 06:32:19;;;;;;;4.80;4.60;;;17.40;99.90;;;;;;5030219;28;20211;-49
2022/09/06 06:34:47;;;;;;;5.03;4.53;;;17.40;99.90;;;;;;5028894;28;20611;-49
2022/09/06 06:37:14;;;;;;;4.57;4.23;;;17.50;99.90;;;;;;5030145;28;20298;-49
2022/09/06 06:39:41;;;;;;;4.70;4.50;;;17.50;99.90;;;;;;5030336;28;20252;-48
2022/09/06 06:42:08;;;;;;;4.97;4.50;;;17.60;99.90;;;;;;5026867;28;20199;-48
2022/09/06 06:44:35;;;;;;;5.20;4.27;;;17.60;99.90;;;;;;5027624;28;20273;-48
2022/09/06 06:47:03;;;;;;;4.33;4.03;;;17.70;99.90;;;;;;5030431;28;20214;-49
2022/09/06 06:49:30;;;;;;;4.63;4.20;;;17.80;99.90;;;;;;5031035;28;20199;-49
2022/09/06 06:51:57;;;;;;;4.60;4.40;;;17.80;99.90;;;;;;5033948;28;20732;-48
2022/09/06 06:54:24;;;;;;;4.47;4.07;;;17.80;99.90;;;;;;5033922;28;20241;-49
2022/09/06 06:56:51;;;;;;;5.47;5.10;;;17.90;99.90;;;;;;5034014;28;20210;-49
2022/09/06 06:59:19;;;;;;;6.97;6.33;;;17.90;99.90;;;;;;5032983;28;20203;-48
2022/09/06 07:01:48;;;;;;;5.57;5.07;;;17.90;99.90;;;;;;5032714;28;20194;-48
2022/09/06 07:04:17;;;;;;;5.23;4.77;;;17.80;99.90;;;;;;5032113;28;20218;-48
2022/09/06 07:06:49;;;;;;;5.40;4.90;;;17.90;99.90;;;;;;5033536;28;20265;-48
2022/09/06 07:09:18;;;;;;;5.27;5.00;;;17.80;99.90;;;;;;5032998;28;20203;-48
2022/09/06 07:11:45;;;;;;;5.23;4.73;;;17.80;99.90;;;;;;5032757;28;20272;-48
2022/09/06 07:14:12;;;;;;;6.00;5.40;;;17.80;99.90;;;;;;5033031;28;20202;-48
2022/09/06 07:16:39;;;;;;;4.63;4.20;;;17.70;99.90;;;;;;5032092;28;20222;-48
2022/09/06 07:19:06;;;;;;;5.37;5.07;;;17.70;99.90;;;;;;5033012;28;20211;-49
2022/09/06 07:21:35;;;;;;;4.93;4.53;;;17.80;99.90;;;;;;5032514;28;20195;-48
2022/09/06 07:24:02;;;;;;;6.17;4.43;;;17.90;99.90;;;;;;5035168;28;20210;-49
2022/09/06 07:26:30;;;;;;;5.72;5.10;;;17.90;99.90;;;;;;5030467;28;20492;-48
2022/09/06 07:28:59;;;;;;;5.43;4.90;;;18.00;99.90;;;;;;5032093;28;20213;-48
2022/09/06 07:31:27;;;;;;;5.60;5.10;;;18.00;99.90;;;;;;5032485;28;20302;-48
2022/09/06 07:33:54;;;;;;;4.67;4.40;;;18.10;99.90;;;;;;5027858;28;20202;-49
2022/09/06 07:36:22;;;;;;;5.70;5.27;;;18.30;99.90;;;;;;5031784;28;20716;-48
2022/09/06 07:38:51;;;;;;;4.33;4.13;;;18.40;99.90;;;;;;5032665;28;20202;-48
2022/09/06 07:41:19;;;;;;;5.10;4.83;;;18.70;99.90;;;;;;5027557;28;20199;-49
2022/09/06 07:43:46;;;;;;;5.60;5.10;;;19.30;99.90;;;;;;5031260;28;20723;-50
2022/09/06 07:46:15;;;;;;;4.30;3.90;;;19.90;99.90;;;;;;5030833;28;20226;-49
2022/09/06 07:48:43;;;;;;;4.00;3.80;;;20.60;99.90;;;;;;5029745;28;20202;-49
2022/09/06 07:51:12;;;;;;;7.33;3.67;;;21.80;99.90;;;;;;5027096;28;20216;-49
2022/09/06 07:53:40;;;;;;;3.27;3.07;;;22.80;99.90;;;;;;5030187;28;20190;-48
2022/09/06 07:56:11;;;;;;;2.90;2.70;;;23.50;99.90;;;;;;5029836;28;20226;-49
2022/09/06 07:58:39;;;;;;;3.33;3.23;;;24.00;99.90;;;;;;5028819;28;20205;-49
2022/09/06 08:01:28;;;;;;;4.03;3.63;;;23.30;99.90;;;;;;5031964;28;20198;-49
2022/09/06 08:03:57;;;;;;;3.93;3.60;;;22.50;99.90;;;;;;5021891;28;20301;-48
2022/09/06 08:06:25;;;;;;;3.67;3.40;;;22.60;99.90;;;;;;5027937;28;20641;-48
2022/09/06 08:08:53;;;;;;;3.53;3.20;;;23.00;99.90;;;;;;5029463;28;20691;-48
2022/09/06 08:11:22;;;;;;;4.80;3.60;;;23.80;99.90;;;;;;5025009;28;21149;-52
2022/09/06 08:13:50;;;;;;;4.93;3.33;;;24.50;99.90;;;;;;5022948;28;20206;-48
2022/09/06 08:16:18;;;;;;;5.43;4.43;;;25.10;99.90;;;;;;5022832;28;20254;-49
2022/09/06 08:18:49;;;;;;;4.40;3.53;;;25.60;99.90;;;;;;5023854;28;20203;-48
2022/09/06 08:21:17;;;;;;;5.37;3.93;;;26.10;99.90;;;;;;5023766;28;20202;-49
2022/09/06 08:23:47;;;;;;;3.90;3.60;;;26.50;99.90;;;;;;5025693;28;20215;-49
2022/09/06 08:26:14;;;;;;;3.25;2.95;;;26.60;99.90;;;;;;5024235;28;20881;-49
2022/09/06 08:28:43;;;;;;;3.00;2.60;;;26.60;99.90;;;;;;5023526;28;20280;-48
2022/09/06 08:31:11;;;;;;;2.77;2.50;;;26.30;99.90;;;;;;5028254;28;20237;-49
2022/09/06 08:33:40;;;;;;;2.77;2.57;;;26.10;99.90;;;;;;5022821;28;20215;-48
2022/09/06 08:36:08;;;;;;;2.73;2.63;;;26.60;99.90;;;;;;5022470;28;20319;-48
2022/09/06 08:38:35;;;;;;;2.53;2.42;;;27.30;99.90;;;;;;5020445;28;20210;-48
2022/09/06 08:41:08;;;;;;;2.47;2.17;;;27.50;99.90;;;;;;5022155;28;20229;-49
2022/09/06 08:43:36;;;;;;;3.13;2.55;;;28.30;99.90;;;;;;5023232;28;20222;-49
2022/09/06 08:46:06;;;;;;;2.88;2.78;;;28.60;99.90;;;;;;5021792;28;20229;-49
2022/09/06 08:48:38;;;;;;;5.53;2.85;;;28.40;99.90;;;;;;5022834;28;20202;-48
2022/09/06 08:51:44;;;;;;;2.40;2.30;;;28.90;99.90;;;;;;5027831;28;20240;-49
2022/09/06 08:54:19;;;;;;;2.45;2.38;;;28.70;99.90;;;;;;5023034;28;20198;-49
2022/09/06 08:57:03;;;;;;;3.25;3.05;;;29.20;99.90;;;;;;5028193;28;20229;-48
2022/09/06 08:59:36;;;;;;;2.63;2.15;;;29.60;99.90;;;;;;5026625;28;20199;-50
2022/09/06 09:02:11;;;;;;;2.10;2.00;;;29.60;99.90;;;;;;5028254;28;20206;-49
2022/09/06 09:04:43;;;;;;;2.47;2.47;;;29.50;99.90;;;;;;5027892;28;20217;-48
2022/09/06 09:07:31;;;;;;;2.63;2.05;;;29.70;99.90;;;;;;5020909;28;20226;-50
2022/09/06 09:10:02;;;;;;;3.00;2.40;;;29.60;99.90;;;;;;5018897;28;20210;-48
2022/09/06 09:12:32;;;;;;;2.10;1.98;;;29.40;99.90;;;;;;5021492;28;20209;-49
2022/09/06 09:15:07;;;;;;;4.20;2.22;;;28.60;99.90;;;;;;5021412;28;20205;-48
2022/09/06 09:17:37;;;;;;;2.40;2.20;;;28.40;99.90;;;;;;5019541;28;20233;-49
2022/09/06 09:20:07;;;;;;;2.85;2.65;;;27.80;99.90;;;;;;5020148;28;20221;-50
2022/09/06 09:22:35;;;;;;;3.28;2.95;;;27.70;99.90;;;;;;5023711;28;20190;-49
2022/09/06 09:25:04;;;;;;;3.25;2.95;;;28.30;99.90;;;;;;5022434;28;20271;-49
2022/09/06 09:27:33;;;;;;;3.13;2.92;;;28.80;99.90;;;;;;5028090;28;20233;-50
2022/09/06 09:30:02;;;;;;;2.60;2.42;;;29.40;99.90;;;;;;5025043;28;20206;-49
2022/09/06 09:32:33;;;;;;;2.50;2.40;;;29.90;99.90;;;;;;5022596;28;21806;-49
2022/09/06 09:35:23;;;;;;;2.63;2.42;;;30.40;99.90;;;;;;5021890;28;20202;-49
2022/09/06 09:37:59;;;;;;;2.60;2.50;;;30.50;99.90;;;;;;5026957;28;20266;-49
2022/09/06 09:40:33;;;;;;;5.47;3.10;;;30.70;99.90;;;;;;5023049;28;20203;-49
2022/09/06 09:43:17;;;;;;;3.55;3.35;;;30.00;99.90;;;;;;5029701;28;20729;-50
2022/09/06 09:45:44;;;;;;;2.35;2.20;;;29.70;99.90;;;;;;5027843;28;20631;-50
2022/09/06 09:48:20;;;;;;;2.05;2.03;;;29.80;99.90;;;;;;5024933;28;20681;-49
2022/09/06 09:50:49;;;;;;;2.58;2.58;;;29.40;99.90;;;;;;5029764;28;20217;-48
2022/09/06 09:53:21;;;;;;;3.00;2.05;;;29.00;99.90;;;;;;5029862;28;20209;-49
2022/09/06 09:55:49;;;;;;;2.63;2.53;;;29.60;99.90;;;;;;5030342;28;20256;-50
2022/09/06 09:58:29;;;;;;;2.78;2.55;;;29.70;99.90;;;;;;5028035;28;20256;-49
2022/09/06 10:01:16;;;;;;;2.50;2.30;;;29.40;99.90;;;;;;5029253;28;20580;-50
2022/09/06 10:03:43;;;;;;;2.17;2.17;;;28.90;99.90;;;;;;5027559;28;20220;-49
2022/09/06 10:06:14;;;;;;;3.97;2.25;;;29.20;99.90;;;;;;5025318;28;20735;-49
2022/09/06 10:08:43;;;;;;;3.83;2.15;;;29.30;99.90;;;;;;5020736;28;20218;-49
2022/09/06 10:11:13;;;;;;;2.53;2.40;;;29.20;99.90;;;;;;5022762;28;20264;-48
2022/09/06 10:13:42;;;;;;;3.50;3.20;;;28.50;99.90;;;;;;5023252;28;20195;-49
2022/09/06 10:16:09;;;;;;;1.83;1.73;;;28.10;99.90;;;;;;5022348;28;20259;-50
2022/09/06 10:18:39;;;;;;;3.00;2.40;;;27.70;99.90;;;;;;5022632;28;20203;-49
2022/09/06 10:21:09;;;;;;;2.17;1.98;;;27.40;99.90;;;;;;5024141;28;20207;-49
2022/09/06 10:24:04;;;;;;;5.78;2.10;;;27.00;99.90;;;;;;5020891;28;20320;-48
2022/09/06 10:26:42;;;;;;;2.42;2.22;;;26.50;99.90;;;;;;5025104;28;20280;-49
2022/09/06 10:29:09;;;;;;;2.60;2.45;;;26.40;99.90;;;;;;5030621;28;20229;-49
2022/09/06 10:32:02;;;;;;;3.20;2.80;;;26.30;99.90;;;;;;5033396;28;20206;-48
2022/09/06 10:34:59;;;;;;;2.40;2.20;;;26.10;99.90;;;;;;5025172;28;20253;-48
2022/09/06 10:37:38;;;;;;;2.40;2.28;;;26.10;99.90;;;;;;5026409;28;20226;-49
2022/09/06 10:40:09;;;;;;;3.60;2.50;;;25.90;99.90;;;;;;5028678;28;20758;-48
2022/09/06 10:42:45;;;;;;;2.58;2.47;;;25.60;99.90;;;;;;5030057;28;20205;-48
2022/09/06 10:45:29;;;;;;;1.92;1.83;;;25.80;99.90;;;;;;5029581;28;20226;-49
2022/09/06 10:48:01;;;;;;;5.82;2.33;;;25.80;99.90;;;;;;5026210;28;20314;-49
2022/09/06 10:50:41;;;;;;;2.95;2.72;;;25.60;99.90;;;;;;5033920;28;20668;-49
2022/09/06 10:53:18;;;;;;;4.93;2.67;;;25.40;99.90;;;;;;5028365;28;20293;-50
2022/09/06 10:55:53;;;;;;;2.67;2.10;;;25.50;99.90;;;;;;5027743;28;20635;-49
2022/09/06 10:58:26;;;;;;;2.60;2.50;;;25.70;99.90;;;;;;5032482;28;20240;-50
2022/09/06 11:00:55;;;;;;;4.05;2.50;;;25.70;99.90;;;;;;5029979;28;20746;-50
2022/09/06 11:03:27;;;;;;;2.83;2.63;;;25.40;99.90;;;;;;5029281;28;20344;-49
2022/09/06 11:05:58;;;;;;;5.75;4.13;;;25.40;99.90;;;;;;5032345;28;20248;-50
2022/09/06 11:08:30;;;;;;;2.53;2.33;;;25.10;99.90;;;;;;5024982;28;20199;-49
2022/09/06 11:11:06;;;;;;;4.30;2.28;;;24.90;99.90;;;;;;5026215;28;20635;-48
2022/09/06 11:13:33;;;;;;;1.90;1.80;;;24.90;99.90;;;;;;5025843;28;20309;-49
2022/09/06 11:16:05;;;;;;;2.37;2.00;;;24.90;99.90;;;;;;5024687;28;20206;-48
2022/09/06 11:18:38;;;;;;;4.20;2.27;;;25.00;99.90;;;;;;5025022;28;20214;-48
2022/09/06 11:21:30;;;;;;;1.93;1.93;;;25.10;99.90;;;;;;5025724;28;20688;-48
2022/09/06 11:24:04;;;;;;;2.30;2.17;;;25.10;99.90;;;;;;5025050;28;20199;-48
2022/09/06 11:26:36;;;;;;;5.00;2.00;;;25.30;99.90;;;;;;5025625;28;20309;-48
2022/09/06 11:29:06;;;;;;;4.30;2.40;;;25.60;99.90;;;;;;5025909;28;20207;-48
2022/09/06 11:31:48;;;;;;;2.38;2.28;;;25.60;99.90;;;;;;5026198;28;20841;-49
2022/09/06 11:34:21;;;;;;;7.75;2.75;;;25.60;99.90;;;;;;5025999;28;20202;-48
2022/09/06 11:36:50;;;;;;;3.03;2.83;;;26.00;99.90;;;;;;5024365;28;20233;-49
2022/09/06 11:39:26;;;;;;;5.38;2.97;;;26.10;99.90;;;;;;5027339;28;20224;-49
2022/09/06 11:41:54;;;;;;;5.00;2.73;;;26.30;99.90;;;;;;5025621;28;20268;-53
2022/09/06 11:44:51;;;;;;;2.80;1.80;;;26.40;99.90;;;;;;5023206;28;20909;-49
2022/09/06 11:47:36;;;;;;;7.60;2.53;;;26.10;99.90;;;;;;5027435;28;20627;-49
2022/09/06 11:50:23;;;;;;;5.90;2.30;;;26.00;99.90;;;;;;5030813;28;20206;-48
2022/09/06 11:52:58;;;;;;;6.10;2.30;;;25.90;99.90;;;;;;5029557;28;20228;-48
2022/09/06 11:55:32;;;;;;;3.90;2.43;;;25.70;99.90;;;;;;5030794;28;20245;-49
2022/09/06 11:58:03;;;;;;;4.97;2.57;;;25.50;99.90;;;;;;5030014;28;20217;-48
2022/09/06 12:00:31;;;;;;;2.80;2.60;;;25.30;99.90;;;;;;5031309;28;20202;-49
2022/09/06 12:02:58;;;;;;;2.63;2.43;;;25.50;99.90;;;;;;5032001;28;20217;-48
2022/09/06 12:05:28;;;;;;;4.73;2.73;;;25.60;99.90;;;;;;5029889;28;20695;-48
2022/09/06 12:08:24;;;;;;;5.17;3.43;;;25.70;99.90;;;;;;5032038;28;20218;-48
2022/09/06 12:11:20;;;;;;;2.92;2.35;;;25.80;99.90;;;;;;5029917;28;20202;-48
2022/09/06 12:14:02;;;;;;;3.00;2.80;;;26.00;99.90;;;;;;5024280;28;20214;-48
2022/09/06 12:17:03;;;;;;;4.73;4.27;;;26.40;99.90;;;;;;5024041;28;20316;-49
2022/09/06 12:19:44;;;;;;;5.95;3.03;;;26.50;99.90;;;;;;5023293;28;20198;-48
2022/09/06 12:22:59;;;;;;;4.65;2.10;;;26.60;99.90;;;;;;5026957;28;20767;-50
2022/09/06 12:25:57;;;;;;;4.65;3.47;;;26.70;99.90;;;;;;5017403;28;20229;-49
2022/09/06 12:28:33;;;;;;;8.45;2.95;;;26.60;99.90;;;;;;5012492;28;20341;-49
2022/09/06 12:31:19;;;;;;;5.80;3.08;;;26.40;99.90;;;;;;5020972;28;20297;-49
2022/09/06 12:33:47;;;;;;;2.85;2.22;;;26.50;99.90;;;;;;5028831;28;20259;-49
2022/09/06 12:36:17;;;;;;;4.72;3.40;;;26.60;99.90;;;;;;5024989;28;20339;-49
2022/09/06 12:38:56;;;;;;;5.53;3.42;;;26.60;99.90;;;;;;5023248;28;20260;-49
2022/09/06 12:41:23;;;;;;;4.70;2.55;;;26.50;99.90;;;;;;5024482;28;20214;-49
2022/09/06 12:43:50;;;;;;;5.88;3.30;;;26.50;99.90;;;;;;5023510;28;20261;-48
2022/09/06 12:46:19;;;;;;;3.33;2.90;;;26.50;99.90;;;;;;5024624;28;20218;-48
2022/09/06 12:49:04;;;;;;;6.43;2.60;;;26.60;99.90;;;;;;5022342;28;20207;-49
2022/09/06 12:51:31;;;;;;;3.72;2.75;;;26.70;99.90;;;;;;5023740;28;20206;-49
2022/09/06 12:54:00;;;;;;;3.53;3.15;;;26.70;99.90;;;;;;5026755;28;20627;-49
2022/09/06 12:56:28;;;;;;;2.92;2.67;;;26.70;99.90;;;;;;5023343;28;20221;-48
2022/09/06 12:59:13;;;;;;;5.97;3.42;;;26.40;99.90;;;;;;5023480;28;20314;-48
2022/09/06 13:01:45;;;;;;;4.07;3.22;;;26.40;99.90;;;;;;5022815;28;20711;-49
2022/09/06 13:04:21;;;;;;;3.03;2.55;;;26.30;99.90;;;;;;5020389;28;20453;-49
2022/09/06 13:06:49;;;;;;;6.05;2.97;;;26.40;99.90;;;;;;5022811;28;20230;-49